createdAt,value
2022-10-11T00:00:11.644Z,224.48
2022-10-11T00:01:11.809Z,223.41
2022-10-11T00:02:11.645Z,224.48
2022-10-11T00:03:11.589Z,222.65
2022-10-11T00:04:11.586Z,221.90
2022-10-11T00:05:11.553Z,223.87
2022-10-11T00:06:11.554Z,221.75
2022-10-11T00:07:11.765Z,222.35
2022-10-11T00:08:11.533Z,222.35
2022-10-11T00:09:11.529Z,221.60
2022-10-11T00:10:11.515Z,221.30
2022-10-11T00:11:11.512Z,223.57
2022-10-11T00:12:11.493Z,223.26
2022-10-11T00:13:11.623Z,222.50
2022-10-11T00:14:11.481Z,223.87
2022-10-11T00:15:11.458Z,224.94
2022-10-11T00:16:11.456Z,224.33
2022-10-11T00:17:11.423Z,226.18
2022-10-11T00:18:11.414Z,226.50
2022-10-11T00:19:11.792Z,226.03
2022-10-11T00:20:11.392Z,227.12
2022-10-11T00:21:11.389Z,229.19
2022-10-11T00:22:11.376Z,230.15
2022-10-11T00:23:11.363Z,229.51
2022-10-11T00:24:11.369Z,229.83
2022-10-11T00:25:11.539Z,230.96
2022-10-11T00:26:11.325Z,231.12
2022-10-11T00:27:11.318Z,235.60
2022-10-11T00:28:11.354Z,235.27
2022-10-11T00:29:11.306Z,236.97
2022-10-11T00:30:11.284Z,238.17
2022-10-11T00:31:11.635Z,239.91
2022-10-11T00:32:11.265Z,239.56
2022-10-11T00:33:11.263Z,241.32
2022-10-11T00:34:11.241Z,240.09
2022-10-11T00:35:11.225Z,239.21
2022-10-11T00:36:11.217Z,239.74
2022-10-11T00:37:11.374Z,241.32
2022-10-11T00:38:11.194Z,240.62
2022-10-11T00:39:12.949Z,240.26
2022-10-11T00:40:11.177Z,240.79
2022-10-11T00:41:11.167Z,244.56
2022-10-11T00:42:11.165Z,244.56
2022-10-11T00:43:11.464Z,246.77
2022-10-11T00:44:11.152Z,245.11
2022-10-11T00:45:11.120Z,246.95
2022-10-11T00:46:11.116Z,248.64
2022-10-11T00:47:11.093Z,250.54
2022-10-11T00:48:11.098Z,251.69
2022-10-11T00:49:11.226Z,252.85
2022-10-11T00:50:11.088Z,255.01
2022-10-11T00:51:11.087Z,255.61
2022-10-11T00:52:11.083Z,255.81
2022-10-11T00:53:11.039Z,256.01
2022-10-11T00:54:11.046Z,257.42
2022-10-11T00:55:11.236Z,256.21
2022-10-11T00:56:11.032Z,254.42
2022-10-11T00:57:10.995Z,257.01
2022-10-11T00:58:10.985Z,257.21
2022-10-11T00:59:10.980Z,257.21
2022-10-11T01:00:10.968Z,259.45
2022-10-11T01:01:11.329Z,260.89
2022-10-11T01:02:10.937Z,261.10
2022-10-11T01:03:10.929Z,260.48
2022-10-11T01:04:10.934Z,263.20
2022-10-11T01:05:28.599Z,264.05
2022-10-11T01:06:12.291Z,264.90
2022-10-11T01:07:10.896Z,263.41
2022-10-11T01:08:10.865Z,267.05
2022-10-11T01:09:10.859Z,264.47
2022-10-11T01:10:10.868Z,267.93
2022-10-11T01:11:10.843Z,266.84
2022-10-11T01:12:11.204Z,265.76
2022-10-11T01:13:10.806Z,264.26
2022-10-11T01:14:10.802Z,265.33
2022-10-11T01:15:10.815Z,265.33
2022-10-11T01:16:10.776Z,265.54
2022-10-11T01:17:10.778Z,265.76
2022-10-11T01:18:10.980Z,266.19
2022-10-11T01:19:10.746Z,266.62
2022-10-11T01:20:10.750Z,265.97
2022-10-11T01:21:10.740Z,264.26
2022-10-11T01:22:10.717Z,264.05
2022-10-11T01:23:10.707Z,264.68
2022-10-11T01:24:11.167Z,265.33
2022-10-11T01:25:10.677Z,265.97
2022-10-11T01:26:10.670Z,266.84
2022-10-11T01:27:10.677Z,265.97
2022-10-11T01:28:10.653Z,265.76
2022-10-11T01:29:10.647Z,264.47
2022-10-11T01:30:10.848Z,263.62
2022-10-11T01:31:10.616Z,265.54
2022-10-11T01:32:10.610Z,267.49
2022-10-11T01:33:10.587Z,266.84
2022-10-11T01:34:10.579Z,267.49
2022-10-11T01:35:10.576Z,267.71
2022-10-11T01:36:10.886Z,265.76
2022-10-11T01:37:10.551Z,264.68
2022-10-11T01:38:10.545Z,265.54
2022-10-11T01:39:10.521Z,263.83
2022-10-11T01:40:10.519Z,264.26
2022-10-11T01:41:10.503Z,264.47
2022-10-11T01:42:10.701Z,263.20
2022-10-11T01:43:10.485Z,264.05
2022-10-11T01:44:10.477Z,262.99
2022-10-11T01:45:10.448Z,263.83
2022-10-11T01:46:10.457Z,263.41
2022-10-11T01:47:10.454Z,262.57
2022-10-11T01:48:10.656Z,264.26
2022-10-11T01:49:10.429Z,262.15
2022-10-11T01:50:10.397Z,262.99
2022-10-11T01:51:10.398Z,260.48
2022-10-11T01:52:10.397Z,259.86
2022-10-11T01:53:10.381Z,260.27
2022-10-11T01:54:10.581Z,261.73
2022-10-11T01:55:10.694Z,260.69
2022-10-11T01:56:10.340Z,260.89
2022-10-11T01:57:10.339Z,259.86
2022-10-11T01:58:10.333Z,258.84
2022-10-11T01:59:10.312Z,258.84
2022-10-11T02:00:10.478Z,257.62
2022-10-11T02:01:10.320Z,258.43
2022-10-11T02:02:10.281Z,259.66
2022-10-11T02:03:10.270Z,258.02
2022-10-11T02:04:10.459Z,257.21
2022-10-11T02:05:10.250Z,258.02
2022-10-11T02:06:10.252Z,257.62
2022-10-11T02:07:10.230Z,258.02
2022-10-11T02:08:10.209Z,256.61
2022-10-11T02:09:10.198Z,257.82
2022-10-11T02:10:10.418Z,256.61
2022-10-11T02:11:10.179Z,255.81
2022-10-11T02:12:10.192Z,254.42
2022-10-11T02:13:10.156Z,254.42
2022-10-11T02:14:10.147Z,253.83
2022-10-11T02:15:10.131Z,254.42
2022-10-11T02:16:10.318Z,253.83
2022-10-11T02:17:10.118Z,253.05
2022-10-11T02:18:10.127Z,253.44
2022-10-11T02:19:10.097Z,251.88
2022-10-11T02:20:10.097Z,251.50
2022-10-11T02:21:10.061Z,251.69
2022-10-11T02:22:10.223Z,250.92
2022-10-11T02:23:10.067Z,250.73
2022-10-11T02:24:10.052Z,250.54
2022-10-11T02:25:10.034Z,250.15
2022-10-11T02:26:10.019Z,250.15
2022-10-11T02:27:09.999Z,249.77
2022-10-11T02:28:10.301Z,250.35
2022-10-11T02:29:09.987Z,250.54
2022-10-11T02:30:09.972Z,250.54
2022-10-11T02:31:09.960Z,249.77
2022-10-11T02:32:09.951Z,249.58
2022-10-11T02:33:09.929Z,249.20
2022-10-11T02:34:10.381Z,249.20
2022-10-11T02:35:09.909Z,248.83
2022-10-11T02:36:09.910Z,247.89
2022-10-11T02:37:09.896Z,247.89
2022-10-11T02:38:09.878Z,247.14
2022-10-11T02:39:09.873Z,246.77
2022-10-11T02:40:10.189Z,245.66
2022-10-11T02:41:09.838Z,245.29
2022-10-11T02:42:17.359Z,244.56
2022-10-11T02:43:09.822Z,244.56
2022-10-11T02:44:09.812Z,243.83
2022-10-11T02:45:09.819Z,243.11
2022-10-11T02:46:10.010Z,243.29
2022-10-11T02:47:09.781Z,242.39
2022-10-11T02:48:09.779Z,242.57
2022-10-11T02:49:09.757Z,241.32
2022-10-11T02:50:09.751Z,242.57
2022-10-11T02:51:09.730Z,241.86
2022-10-11T02:52:10.051Z,241.86
2022-10-11T02:53:09.717Z,242.04
2022-10-11T02:54:09.702Z,240.26
2022-10-11T02:55:09.703Z,240.79
2022-10-11T02:56:09.683Z,240.62
2022-10-11T02:57:09.682Z,240.44
2022-10-11T02:58:10.003Z,239.74
2022-10-11T02:59:09.652Z,239.91
2022-10-11T03:00:09.632Z,240.09
2022-10-11T03:01:09.676Z,239.56
2022-10-11T03:02:09.623Z,238.86
2022-10-11T03:03:09.613Z,238.52
2022-10-11T03:04:09.928Z,237.65
2022-10-11T03:05:09.622Z,237.82
2022-10-11T03:06:09.579Z,237.14
2022-10-11T03:07:09.563Z,237.31
2022-10-11T03:08:09.553Z,236.11
2022-10-11T03:09:09.547Z,236.11
2022-10-11T03:10:09.916Z,235.10
2022-10-11T03:11:09.535Z,234.76
2022-10-11T03:12:09.501Z,235.60
2022-10-11T03:13:09.494Z,234.93
2022-10-11T03:14:09.489Z,235.27
2022-10-11T03:15:09.469Z,235.44
2022-10-11T03:16:10.226Z,234.59
2022-10-11T03:17:34.375Z,232.93
2022-10-11T03:18:10.451Z,232.60
2022-10-11T03:19:09.436Z,230.31
2022-10-11T03:20:09.429Z,230.15
2022-10-11T03:21:09.415Z,229.83
2022-10-11T03:22:09.552Z,229.83
2022-10-11T03:23:09.402Z,228.71
2022-10-11T03:24:09.372Z,228.23
2022-10-11T03:25:09.362Z,225.41
2022-10-11T03:26:09.608Z,226.50
2022-10-11T03:27:09.349Z,226.50
2022-10-11T03:28:09.564Z,225.72
2022-10-11T03:29:09.336Z,223.26
2022-10-11T03:30:09.323Z,223.11
2022-10-11T03:31:09.327Z,223.57
2022-10-11T03:32:09.287Z,220.26
2022-10-11T03:33:09.288Z,218.21
2022-10-11T03:34:09.477Z,216.63
2022-10-11T03:35:09.264Z,213.11
2022-10-11T03:36:09.518Z,209.44
2022-10-11T03:37:09.244Z,207.98
2022-10-11T03:38:12.902Z,203.72
2022-10-11T03:39:09.221Z,202.09
2022-10-11T03:40:09.389Z,199.99
2022-10-11T03:41:09.196Z,198.42
2022-10-11T03:42:09.182Z,197.11
2022-10-11T03:43:09.172Z,194.65
2022-10-11T03:44:09.166Z,192.26
2022-10-11T03:45:09.144Z,187.96
2022-10-11T03:46:09.548Z,184.79
2022-10-11T03:47:09.128Z,183.99
2022-10-11T03:48:09.119Z,180.40
2022-10-11T03:49:09.104Z,178.09
2022-10-11T03:50:09.083Z,173.83
2022-10-11T03:51:09.090Z,170.45
2022-10-11T03:52:09.233Z,168.22
2022-10-11T03:53:09.069Z,165.55
2022-10-11T03:54:09.063Z,162.80
2022-10-11T03:55:09.093Z,161.86
2022-10-11T03:56:09.042Z,160.30
2022-10-11T03:57:09.026Z,159.84
2022-10-11T03:58:09.154Z,158.18
2022-10-11T03:59:08.998Z,157.58
2022-10-11T04:00:08.984Z,156.69
2022-10-11T04:01:09.005Z,156.25
2022-10-11T04:02:09.069Z,155.96
2022-10-11T04:03:08.974Z,155.67
2022-10-11T04:04:09.303Z,153.38
2022-10-11T04:05:08.949Z,153.24
2022-10-11T04:06:09.678Z,152.40
2022-10-11T04:07:08.906Z,150.88
2022-10-11T04:08:12.112Z,149.40
2022-10-11T04:09:08.889Z,148.33
2022-10-11T04:10:09.055Z,148.46
2022-10-11T04:11:08.880Z,147.55
2022-10-11T04:12:08.864Z,146.90
2022-10-11T04:13:08.846Z,147.29
2022-10-11T04:14:08.843Z,146.00
2022-10-11T04:15:08.827Z,145.36
2022-10-11T04:16:09.178Z,143.73
2022-10-11T04:17:08.807Z,143.98
2022-10-11T04:18:08.800Z,143.24
2022-10-11T04:19:08.805Z,143.49
2022-10-11T04:20:08.785Z,143.61
2022-10-11T04:21:08.765Z,143.61
2022-10-11T04:22:09.485Z,142.99
2022-10-11T04:23:08.736Z,142.26
2022-10-11T04:24:08.738Z,142.02
2022-10-11T04:25:08.729Z,142.02
2022-10-11T04:26:09.010Z,140.59
2022-10-11T04:27:08.699Z,141.06
2022-10-11T04:28:08.878Z,141.42
2022-10-11T04:29:08.683Z,139.99
2022-10-11T04:30:08.711Z,140.82
2022-10-11T04:31:08.656Z,139.76
2022-10-11T04:32:08.654Z,139.88
2022-10-11T04:33:08.639Z,140.35
2022-10-11T04:34:08.844Z,139.99
2022-10-11T04:35:08.611Z,141.30
2022-10-11T04:36:08.922Z,140.82
2022-10-11T04:37:08.582Z,141.54
2022-10-11T04:38:08.575Z,142.26
2022-10-11T04:39:08.576Z,142.75
2022-10-11T04:40:08.828Z,143.73
2022-10-11T04:41:08.534Z,144.98
2022-10-11T04:42:08.540Z,144.73
2022-10-11T04:43:08.516Z,144.73
2022-10-11T04:44:08.498Z,146.25
2022-10-11T04:45:08.499Z,144.60
2022-10-11T04:46:09.157Z,144.11
2022-10-11T04:47:08.622Z,143.73
2022-10-11T04:48:08.453Z,141.42
2022-10-11T04:49:08.451Z,140.59
2022-10-11T04:50:08.455Z,138.14
2022-10-11T04:51:08.424Z,137.01
2022-10-11T04:52:08.578Z,136.00
2022-10-11T04:53:08.404Z,134.90
2022-10-11T04:54:08.567Z,133.29
2022-10-11T04:55:08.388Z,132.34
2022-10-11T04:56:08.969Z,130.27
2022-10-11T04:57:08.377Z,129.56
2022-10-11T04:58:08.349Z,128.66
2022-10-11T04:59:08.346Z,127.19
2022-10-11T05:00:08.525Z,127.68
2022-10-11T05:01:08.319Z,127.48
2022-10-11T05:02:08.314Z,127.00
2022-10-11T05:03:08.306Z,126.32
2022-10-11T05:04:08.285Z,125.56
2022-10-11T05:05:08.273Z,125.19
2022-10-11T05:06:08.850Z,125.19
2022-10-11T05:07:08.261Z,124.16
2022-10-11T05:08:08.245Z,122.79
2022-10-11T05:09:08.236Z,123.34
2022-10-11T05:10:08.226Z,122.52
2022-10-11T05:11:08.208Z,121.89
2022-10-11T05:12:09.083Z,121.54
2022-10-11T05:13:08.184Z,121.98
2022-10-11T05:14:08.175Z,120.75
2022-10-11T05:15:08.181Z,120.49
2022-10-11T05:16:10.875Z,120.66
2022-10-11T05:17:08.146Z,121.54
2022-10-11T05:18:08.517Z,121.81
2022-10-11T05:19:08.173Z,121.89
2022-10-11T05:20:08.127Z,122.70
2022-10-11T05:21:08.167Z,122.97
2022-10-11T05:22:08.107Z,123.15
2022-10-11T05:23:08.084Z,123.15
2022-10-11T05:24:19.300Z,122.61
2022-10-11T05:25:16.630Z,123.52
2022-10-11T05:26:15.608Z,123.79
2022-10-11T05:27:16.558Z,124.07
2022-10-11T05:28:17.398Z,126.04
2022-10-11T05:29:35.059Z,127.29
2022-10-11T05:30:16.547Z,129.06
2022-10-11T05:31:15.503Z,128.27
2022-10-11T05:32:16.492Z,130.47
2022-10-11T05:33:15.491Z,132.97
2022-10-11T05:34:07.957Z,133.50
2022-10-11T05:35:08.177Z,136.00
2022-10-11T05:36:08.400Z,138.95
2022-10-11T05:37:07.927Z,141.54
2022-10-11T05:38:07.925Z,142.63
2022-10-11T05:39:07.891Z,143.24
2022-10-11T05:40:07.900Z,144.73
2022-10-11T05:41:08.082Z,145.23
2022-10-11T05:42:10.051Z,147.55
2022-10-11T05:43:07.868Z,147.29
2022-10-11T05:44:07.850Z,147.42
2022-10-11T05:45:07.830Z,147.68
2022-10-11T05:46:08.349Z,146.64
2022-10-11T05:47:07.970Z,146.90
2022-10-11T05:48:07.802Z,147.42
2022-10-11T05:49:07.791Z,147.29
2022-10-11T05:50:07.793Z,148.07
2022-10-11T05:51:07.776Z,147.55
2022-10-11T05:52:07.761Z,147.42
2022-10-11T05:53:08.280Z,146.12
2022-10-11T05:54:07.746Z,143.49
2022-10-11T05:55:07.721Z,144.11
2022-10-11T05:56:08.131Z,142.99
2022-10-11T05:57:07.723Z,142.38
2022-10-11T05:58:07.696Z,142.26
2022-10-11T05:59:07.896Z,141.30
2022-10-11T06:00:07.675Z,141.78
2022-10-11T06:01:07.707Z,142.02
2022-10-11T06:02:07.649Z,141.78
2022-10-11T06:03:07.638Z,142.02
2022-10-11T06:04:07.801Z,141.54
2022-10-11T06:05:07.619Z,142.02
2022-10-11T06:06:07.928Z,141.90
2022-10-11T06:07:07.597Z,142.75
2022-10-11T06:08:07.593Z,142.51
2022-10-11T06:09:07.581Z,141.78
2022-10-11T06:10:07.780Z,142.26
2022-10-11T06:11:11.371Z,142.38
2022-10-11T06:12:07.530Z,142.63
2022-10-11T06:13:07.529Z,142.51
2022-10-11T06:14:07.518Z,142.87
2022-10-11T06:15:07.546Z,142.75
2022-10-11T06:16:08.073Z,142.75
2022-10-11T06:17:07.494Z,143.86
2022-10-11T06:18:07.495Z,144.98
2022-10-11T06:19:07.467Z,145.23
2022-10-11T06:20:07.454Z,145.23
2022-10-11T06:21:07.450Z,147.16
2022-10-11T06:22:07.642Z,146.64
2022-10-11T06:23:07.415Z,148.07
2022-10-11T06:24:07.404Z,147.55
2022-10-11T06:25:07.435Z,146.77
2022-10-11T06:26:07.982Z,148.07
2022-10-11T06:27:07.372Z,147.68
2022-10-11T06:28:07.745Z,148.99
2022-10-11T06:29:07.376Z,150.20
2022-10-11T06:30:07.398Z,152.54
2022-10-11T06:31:07.330Z,154.23
2022-10-11T06:32:07.320Z,155.96
2022-10-11T06:33:07.329Z,155.52
2022-10-11T06:34:07.451Z,157.28
2022-10-11T06:35:07.286Z,158.18
2022-10-11T06:36:07.767Z,159.23
2022-10-11T06:37:07.269Z,160.15
2022-10-11T06:38:07.255Z,160.46
2022-10-11T06:39:16.948Z,162.01
2022-10-11T06:40:14.773Z,163.60
2022-10-11T06:41:14.726Z,166.04
2022-10-11T06:42:15.927Z,166.71
2022-10-11T06:43:14.874Z,169.07
2022-10-11T06:44:11.934Z,169.59
2022-10-11T06:48:41.278Z,232.60
2022-10-11T06:49:48.606Z,219.09
2022-10-11T06:50:59.234Z,211.74
2022-10-11T06:51:42.053Z,206.15
2022-10-11T06:52:41.053Z,203.72
2022-10-11T06:53:41.038Z,199.14
2022-10-11T06:54:44.715Z,196.28
2022-10-11T06:55:41.014Z,192.48
2022-10-11T06:56:41.038Z,189.59
2022-10-11T06:57:41.004Z,186.89
2022-10-11T06:58:40.981Z,186.45
2022-10-11T06:59:40.984Z,183.99
2022-10-11T07:00:41.221Z,183.38
2022-10-11T07:01:41.029Z,181.19
2022-10-11T07:02:40.938Z,180.80
2022-10-11T07:03:40.913Z,181.19
2022-10-11T07:04:40.912Z,182.18
2022-10-11T07:05:40.903Z,180.40
2022-10-11T07:06:41.053Z,182.18
2022-10-11T07:07:40.887Z,181.38
2022-10-11T07:08:40.862Z,181.38
2022-10-11T07:09:40.932Z,181.98
2022-10-11T07:10:40.844Z,183.99
2022-10-11T07:11:40.833Z,183.18
2022-10-11T07:12:41.083Z,185.62
2022-10-11T07:13:40.810Z,185.62
2022-10-11T07:14:40.845Z,185.62
2022-10-11T07:15:40.815Z,186.66
2022-10-11T07:16:40.788Z,186.04
2022-10-11T07:17:40.932Z,186.45
2022-10-11T07:18:40.921Z,184.99
2022-10-11T07:19:40.742Z,186.04
2022-10-11T07:20:40.734Z,185.83
2022-10-11T07:21:40.721Z,186.24
2022-10-11T07:22:40.730Z,185.52
2022-10-11T07:23:40.703Z,187.43
2022-10-11T07:24:40.863Z,188.72
2022-10-11T07:25:40.715Z,189.37
2022-10-11T07:26:40.688Z,189.70
2022-10-11T07:27:40.675Z,189.26
2022-10-11T07:28:40.725Z,191.58
2022-10-11T07:29:40.633Z,190.58
2022-10-11T07:30:40.649Z,189.92
2022-10-11T07:31:40.609Z,189.70
2022-10-11T07:32:40.604Z,189.92
2022-10-11T07:33:40.596Z,189.15
2022-10-11T07:34:40.582Z,188.07
2022-10-11T07:35:42.865Z,191.02
2022-10-11T07:36:41.734Z,194.54
2022-10-11T07:37:40.564Z,196.05
2022-10-11T07:38:40.568Z,199.26
2022-10-11T07:39:40.542Z,201.09
2022-10-11T07:40:40.522Z,201.84
2022-10-11T07:41:45.437Z,203.34
2022-10-11T07:42:41.532Z,205.50
2022-10-11T07:43:40.499Z,207.98
2022-10-11T07:44:40.474Z,209.71
2022-10-11T07:45:40.454Z,209.17
2022-10-11T07:46:40.508Z,212.15
2022-10-11T07:47:40.449Z,213.11
2022-10-11T07:48:40.453Z,217.63
2022-10-11T07:49:40.414Z,222.81
2022-10-11T07:50:40.408Z,226.18
2022-10-11T07:51:40.398Z,227.91
2022-10-11T07:52:40.376Z,230.31
2022-10-11T07:53:40.425Z,230.80
2022-10-11T07:54:40.468Z,233.43
2022-10-11T07:55:40.354Z,234.59
2022-10-11T07:56:40.352Z,233.26
2022-10-11T07:57:40.330Z,234.26
2022-10-11T07:58:40.347Z,233.76
2022-10-11T07:59:40.301Z,235.10
2022-10-11T08:00:40.471Z,235.44
2022-10-11T08:01:40.327Z,237.48
2022-10-11T08:02:40.388Z,239.21
2022-10-11T08:03:40.253Z,240.44
2022-10-11T08:04:40.263Z,243.83
2022-10-11T08:05:40.234Z,246.03
2022-10-11T08:06:40.396Z,246.40
2022-10-11T08:07:40.245Z,246.95
2022-10-11T08:08:40.213Z,247.33
2022-10-11T08:09:40.192Z,246.77
2022-10-11T08:10:40.194Z,246.95
2022-10-11T08:11:40.178Z,249.39
2022-10-11T08:12:40.512Z,250.54
2022-10-11T08:13:40.145Z,253.63
2022-10-11T08:14:40.156Z,256.61
2022-10-11T08:15:40.142Z,256.41
2022-10-11T08:16:40.122Z,258.02
2022-10-11T08:17:40.125Z,257.21
2022-10-11T08:18:40.337Z,258.02
2022-10-11T08:19:40.088Z,257.82
2022-10-11T08:20:40.093Z,260.27
2022-10-11T08:21:40.137Z,260.89
2022-10-11T08:22:40.086Z,261.94
2022-10-11T08:23:40.070Z,264.26
2022-10-11T08:24:40.228Z,263.62
2022-10-11T08:25:40.025Z,264.26
2022-10-11T08:26:40.014Z,264.26
2022-10-11T08:27:39.996Z,265.54
2022-10-11T08:28:40.034Z,266.40
2022-10-11T08:29:39.974Z,264.26
2022-10-11T08:30:40.160Z,264.68
2022-10-11T08:31:39.953Z,265.97
2022-10-11T08:32:39.955Z,266.19
2022-10-11T08:33:39.936Z,264.26
2022-10-11T08:34:39.949Z,265.54
2022-10-11T08:35:39.912Z,266.19
2022-10-11T08:36:40.080Z,265.11
2022-10-11T08:37:39.911Z,264.47
2022-10-11T08:38:39.890Z,266.19
2022-10-11T08:39:39.879Z,267.71
2022-10-11T08:40:39.865Z,271.47
2022-10-11T08:41:39.855Z,269.91
2022-10-11T08:42:40.078Z,274.20
2022-10-11T08:43:39.822Z,271.92
2022-10-11T08:45:09.373Z,272.37
2022-10-11T08:45:40.826Z,271.92
2022-10-11T08:46:39.837Z,272.60
2022-10-11T08:47:39.791Z,275.11
2022-10-11T08:48:39.980Z,275.58
2022-10-11T08:49:39.764Z,278.62
2022-10-11T08:50:39.772Z,278.38
2022-10-11T08:51:39.736Z,277.91
2022-10-11T08:52:39.729Z,280.05
2022-10-11T08:53:39.726Z,282.70
2022-10-11T08:54:39.942Z,284.42
2022-10-11T08:55:39.710Z,284.91
2022-10-11T08:56:39.688Z,283.68
2022-10-11T08:57:39.671Z,283.92
2022-10-11T08:58:39.716Z,280.76
2022-10-11T08:59:39.678Z,286.90
2022-10-11T09:00:40.069Z,286.40
2022-10-11T09:01:39.669Z,291.23
2022-10-11T09:03:03.381Z,291.49
2022-10-11T09:03:40.613Z,291.23
2022-10-11T09:04:39.601Z,292.01
2022-10-11T09:05:39.584Z,292.01
2022-10-11T09:06:39.743Z,290.97
2022-10-11T09:07:39.565Z,297.03
2022-10-11T09:08:39.560Z,296.76
2022-10-11T09:09:39.549Z,299.47
2022-10-11T09:10:39.538Z,302.79
2022-10-11T09:11:39.518Z,307.04
2022-10-11T09:12:40.950Z,303.91
2022-10-11T09:13:39.499Z,307.90
2022-10-11T09:14:39.493Z,310.82
2022-10-11T09:15:39.477Z,312.00
2022-10-11T09:16:39.494Z,310.52
2022-10-11T09:17:39.458Z,311.41
2022-10-11T09:18:39.621Z,313.19
2022-10-11T09:19:39.437Z,310.23
2022-10-11T09:20:39.425Z,310.52
2022-10-11T09:21:39.439Z,314.09
2022-10-11T09:22:39.402Z,315.30
2022-10-11T09:23:39.433Z,317.43
2022-10-11T09:24:39.442Z,318.67
2022-10-11T09:25:39.370Z,317.43
2022-10-11T09:26:39.352Z,317.43
2022-10-11T09:28:01.126Z,318.05
2022-10-11T09:28:40.373Z,321.48
2022-10-11T09:29:39.322Z,324.34
2022-10-11T09:30:39.554Z,321.79
2022-10-11T09:31:39.305Z,322.11
2022-10-11T09:32:39.298Z,324.98
2022-10-11T09:33:39.283Z,322.74
2022-10-11T09:34:39.274Z,322.74
2022-10-11T09:35:39.252Z,322.11
2022-10-11T09:36:39.432Z,319.60
2022-10-11T09:37:39.234Z,320.54
2022-10-11T09:38:39.232Z,322.74
2022-10-11T09:39:39.233Z,328.56
2022-10-11T09:40:39.218Z,325.95
2022-10-11T09:41:39.215Z,327.90
2022-10-11T09:42:39.391Z,327.90
2022-10-11T09:43:39.174Z,328.89
2022-10-11T09:44:39.163Z,333.91
2022-10-11T09:45:39.148Z,332.89
2022-10-11T09:46:39.160Z,335.62
2022-10-11T09:47:39.123Z,336.65
2022-10-11T09:48:39.283Z,338.39
2022-10-11T09:49:39.145Z,337.34
2022-10-11T09:50:39.110Z,338.73
2022-10-11T09:51:39.123Z,336.30
2022-10-11T09:52:39.091Z,338.04
2022-10-11T09:53:39.060Z,334.93
2022-10-11T09:54:39.221Z,331.21
2022-10-11T09:55:39.041Z,329.55
2022-10-11T09:56:39.027Z,330.21
2022-10-11T09:57:39.030Z,332.55
2022-10-11T09:58:39.013Z,333.91
2022-10-11T09:59:39.003Z,334.59
2022-10-11T10:00:39.225Z,337.34
2022-10-11T10:01:39.044Z,339.08
2022-10-11T10:02:38.964Z,343.70
2022-10-11T10:03:38.953Z,345.15
2022-10-11T10:04:38.948Z,344.06
2022-10-11T10:05:38.932Z,343.70
2022-10-11T10:06:39.260Z,348.45
2022-10-11T10:07:38.906Z,356.78
2022-10-11T10:08:38.906Z,364.71
2022-10-11T10:09:38.906Z,368.81
2022-10-11T10:10:38.882Z,376.43
2022-10-11T10:11:38.875Z,374.71
2022-10-11T10:12:39.084Z,370.90
2022-10-11T10:13:38.834Z,376.86
2022-10-11T10:14:38.829Z,377.30
2022-10-11T10:15:39.843Z,373.43
2022-10-11T10:16:38.806Z,374.71
2022-10-11T10:17:38.815Z,375.14
2022-10-11T10:18:38.972Z,380.61
2022-10-11T10:19:43.774Z,377.73
2022-10-11T10:20:39.764Z,381.27
2022-10-11T10:21:38.771Z,383.46
2022-10-11T10:22:38.754Z,388.14
2022-10-11T10:23:38.734Z,394.58
2022-10-11T10:24:38.989Z,402.43
2022-10-11T10:25:43.244Z,395.75
2022-10-11T10:26:38.697Z,398.58
2022-10-11T10:27:38.725Z,400.02
2022-10-11T10:28:38.728Z,406.11
2022-10-11T10:29:38.665Z,406.11
2022-10-11T10:30:38.844Z,411.37
2022-10-11T10:31:55.382Z,411.88
2022-10-11T10:32:39.640Z,411.88
2022-10-11T10:33:38.625Z,410.36
2022-10-11T10:34:38.611Z,413.15
2022-10-11T10:35:38.601Z,417.29
2022-10-11T10:36:38.766Z,418.86
2022-10-11T10:37:38.606Z,418.86
2022-10-11T10:38:39.288Z,418.86
2022-10-11T10:39:38.585Z,415.47
2022-10-11T10:40:38.561Z,418.60
2022-10-11T10:41:38.539Z,416.51
2022-10-11T10:42:38.737Z,418.86
2022-10-11T10:43:38.529Z,422.31
2022-10-11T10:44:38.505Z,425.28
2022-10-11T10:45:38.506Z,427.73
2022-10-11T10:46:38.466Z,429.38
2022-10-11T10:47:38.461Z,433.29
2022-10-11T10:49:12.025Z,442.20
2022-10-11T10:49:53.537Z,443.67
2022-10-11T10:50:39.437Z,439.28
2022-10-11T10:51:38.426Z,442.78
2022-10-11T10:52:38.439Z,446.04
2022-10-11T10:53:38.406Z,445.45
2022-10-11T10:54:39.152Z,449.05
2022-10-11T10:55:38.377Z,449.65
2022-10-11T10:56:38.367Z,452.70
2022-10-11T10:57:38.357Z,455.49
2022-10-11T10:58:38.346Z,457.36
2022-10-11T10:59:38.348Z,461.48
2022-10-11T11:00:38.670Z,465.99
2022-10-11T11:01:38.363Z,465.99
2022-10-11T11:02:46.042Z,462.44
2022-10-11T11:03:38.295Z,468.61
2022-10-11T11:04:46.099Z,475.97
2022-10-11T11:05:47.280Z,472.26
2022-10-11T11:06:45.767Z,475.29
2022-10-11T11:07:45.761Z,479.05
2022-10-11T11:08:45.755Z,486.38
2022-10-11T11:09:45.740Z,485.32
2022-10-11T11:10:38.207Z,485.32
2022-10-11T11:11:38.405Z,486.38
2022-10-11T11:12:38.208Z,480.08
2022-10-11T11:13:45.693Z,480.43
2022-10-11T11:14:46.000Z,481.82
2022-10-11T11:15:38.473Z,479.74
2022-10-11T11:16:38.186Z,475.29
2022-10-11T11:17:38.390Z,475.97
2022-10-11T11:18:38.168Z,471.59
2022-10-11T11:19:38.114Z,471.59
2022-10-11T11:20:38.144Z,470.26
2022-10-11T11:21:41.489Z,469.93
2022-10-11T11:22:38.111Z,463.72
2022-10-11T11:23:38.344Z,458.30
2022-10-11T11:24:38.204Z,451.17
2022-10-11T11:25:42.553Z,445.74
2022-10-11T11:26:44.043Z,453.63
2022-10-11T11:27:39.055Z,457.05
2022-10-11T11:28:38.060Z,465.34
2022-10-11T11:29:38.552Z,466.32
2022-10-11T11:30:38.059Z,473.60
2022-10-11T11:31:37.982Z,477.67
2022-10-11T11:32:40.297Z,486.38
2022-10-11T11:33:38.961Z,488.52
2022-10-11T11:34:38.001Z,484.97
2022-10-11T11:35:38.135Z,480.43
2022-10-11T11:36:37.949Z,485.67
2022-10-11T11:37:37.921Z,488.52
2022-10-11T11:38:37.912Z,491.04
2022-10-11T11:39:37.932Z,487.81
2022-10-11T11:40:37.904Z,487.45
2022-10-11T11:41:38.229Z,483.56
2022-10-11T11:42:37.881Z,486.38
2022-10-11T11:43:37.861Z,484.97
2022-10-11T11:44:37.858Z,482.16
2022-10-11T11:45:37.836Z,475.29
2022-10-11T11:46:37.825Z,475.97
2022-10-11T11:47:38.037Z,478.02
2022-10-11T11:48:37.796Z,477.33
2022-10-11T11:49:37.876Z,481.47
2022-10-11T11:50:37.784Z,481.12
2022-10-11T11:51:37.782Z,486.74
2022-10-11T11:52:37.764Z,483.91
2022-10-11T11:53:37.938Z,488.52
2022-10-11T11:54:37.744Z,493.58
2022-10-11T11:55:37.730Z,495.79
2022-10-11T11:56:37.715Z,498.38
2022-10-11T11:57:37.711Z,490.68
2022-10-11T11:58:37.697Z,484.97
2022-10-11T11:59:37.915Z,480.77
2022-10-11T12:00:37.681Z,477.33
2022-10-11T12:01:37.703Z,482.16
2022-10-11T12:02:37.653Z,475.97
2022-10-11T12:03:41.418Z,477.67
2022-10-11T12:04:37.626Z,479.74
2022-10-11T12:05:37.799Z,488.88
2022-10-11T12:06:47.754Z,492.86
2022-10-11T12:07:38.647Z,491.76
2022-10-11T12:08:37.576Z,491.04
2022-10-11T12:09:37.586Z,488.88
2022-10-11T12:10:37.591Z,487.81
2022-10-11T12:11:37.725Z,493.22
2022-10-11T12:12:37.543Z,493.58
2022-10-11T12:13:37.528Z,488.16
2022-10-11T12:14:37.528Z,484.97
2022-10-11T12:15:37.526Z,488.16
2022-10-11T12:16:37.521Z,489.24
2022-10-11T12:17:37.711Z,486.03
2022-10-11T12:18:42.531Z,482.86
2022-10-11T12:19:38.491Z,484.27
2022-10-11T12:20:37.461Z,488.16
2022-10-11T12:21:37.463Z,490.32
2022-10-11T12:22:37.431Z,491.04
2022-10-11T12:23:37.722Z,489.96
2022-10-11T12:24:37.413Z,483.56
2022-10-11T12:25:37.414Z,481.82
2022-10-11T12:26:37.382Z,479.05
2022-10-11T12:27:37.376Z,478.70
2022-10-11T12:28:37.423Z,478.70
2022-10-11T12:29:37.401Z,474.61
2022-10-11T12:30:37.366Z,478.70
2022-10-11T12:31:39.360Z,475.29